sensor_id;sensor_type;location;lat;lon;timestamp;P1;durP1;ratioP1;P2;durP2;ratioP2
3700;SDS011;1866;48.374;10.766;2022-12-07T00:01:23;108.73;;;15.47;;
3700;SDS011;1866;48.374;10.766;2022-12-07T00:03:53;107.37;;;15.37;;
3700;SDS011;1866;48.374;10.766;2022-12-07T00:06:23;109.50;;;15.70;;
3700;SDS011;1866;48.374;10.766;2022-12-07T00:08:50;108.10;;;15.57;;
3700;SDS011;1866;48.374;10.766;2022-12-07T00:11:18;109.40;;;15.20;;
3700;SDS011;1866;48.374;10.766;2022-12-07T00:13:47;107.97;;;15.97;;
3700;SDS011;1866;48.374;10.766;2022-12-07T00:16:18;108.90;;;15.87;;
3700;SDS011;1866;48.374;10.766;2022-12-07T00:18:46;108.90;;;15.80;;
3700;SDS011;1866;48.374;10.766;2022-12-07T00:21:14;109.37;;;16.53;;
3700;SDS011;1866;48.374;10.766;2022-12-07T00:23:43;110.30;;;16.10;;
3700;SDS011;1866;48.374;10.766;2022-12-07T00:26:12;108.93;;;16.37;;
3700;SDS011;1866;48.374;10.766;2022-12-07T00:28:41;109.00;;;15.90;;
3700;SDS011;1866;48.374;10.766;2022-12-07T00:31:12;108.90;;;15.87;;
3700;SDS011;1866;48.374;10.766;2022-12-07T00:33:39;109.07;;;15.40;;
3700;SDS011;1866;48.374;10.766;2022-12-07T00:36:07;109.87;;;15.63;;
3700;SDS011;1866;48.374;10.766;2022-12-07T00:38:36;108.77;;;16.33;;
3700;SDS011;1866;48.374;10.766;2022-12-07T00:41:06;109.90;;;16.00;;
3700;SDS011;1866;48.374;10.766;2022-12-07T00:43:35;108.37;;;15.90;;
3700;SDS011;1866;48.374;10.766;2022-12-07T00:46:02;107.00;;;15.37;;
3700;SDS011;1866;48.374;10.766;2022-12-07T00:48:29;107.10;;;15.70;;
3700;SDS011;1866;48.374;10.766;2022-12-07T00:50:56;109.00;;;15.80;;
3700;SDS011;1866;48.374;10.766;2022-12-07T00:53:23;107.57;;;16.03;;
3700;SDS011;1866;48.374;10.766;2022-12-07T00:55:50;107.97;;;16.03;;
3700;SDS011;1866;48.374;10.766;2022-12-07T00:58:18;109.80;;;15.80;;
3700;SDS011;1866;48.374;10.766;2022-12-07T01:00:46;110.17;;;16.20;;
3700;SDS011;1866;48.374;10.766;2022-12-07T01:03:13;109.20;;;16.17;;
3700;SDS011;1866;48.374;10.766;2022-12-07T01:05:48;110.47;;;16.83;;
3700;SDS011;1866;48.374;10.766;2022-12-07T01:08:16;108.53;;;16.20;;
3700;SDS011;1866;48.374;10.766;2022-12-07T01:10:43;108.30;;;15.47;;
3700;SDS011;1866;48.374;10.766;2022-12-07T01:13:10;108.67;;;16.03;;
3700;SDS011;1866;48.374;10.766;2022-12-07T01:15:39;108.10;;;15.70;;
3700;SDS011;1866;48.374;10.766;2022-12-07T01:18:07;109.87;;;16.37;;
3700;SDS011;1866;48.374;10.766;2022-12-07T01:20:34;111.70;;;16.80;;
3700;SDS011;1866;48.374;10.766;2022-12-07T01:23:01;107.47;;;15.10;;
3700;SDS011;1866;48.374;10.766;2022-12-07T01:25:27;107.37;;;15.27;;
3700;SDS011;1866;48.374;10.766;2022-12-07T01:27:54;111.10;;;16.20;;
3700;SDS011;1866;48.374;10.766;2022-12-07T01:30:21;108.47;;;16.30;;
3700;SDS011;1866;48.374;10.766;2022-12-07T01:32:51;109.23;;;16.10;;
3700;SDS011;1866;48.374;10.766;2022-12-07T01:35:17;108.90;;;16.50;;
3700;SDS011;1866;48.374;10.766;2022-12-07T01:37:44;108.80;;;16.60;;
3700;SDS011;1866;48.374;10.766;2022-12-07T01:40:11;110.37;;;16.73;;
3700;SDS011;1866;48.374;10.766;2022-12-07T01:42:38;109.07;;;16.30;;
3700;SDS011;1866;48.374;10.766;2022-12-07T01:48:11;110.17;;;16.40;;
3700;SDS011;1866;48.374;10.766;2022-12-07T01:50:40;108.00;;;16.10;;
3700;SDS011;1866;48.374;10.766;2022-12-07T01:53:09;109.00;;;16.63;;
3700;SDS011;1866;48.374;10.766;2022-12-07T01:55:37;108.80;;;16.37;;
3700;SDS011;1866;48.374;10.766;2022-12-07T01:58:08;110.13;;;16.07;;
3700;SDS011;1866;48.374;10.766;2022-12-07T02:00:37;106.97;;;15.43;;
3700;SDS011;1866;48.374;10.766;2022-12-07T02:03:04;108.47;;;15.87;;
3700;SDS011;1866;48.374;10.766;2022-12-07T02:05:36;106.60;;;15.43;;
3700;SDS011;1866;48.374;10.766;2022-12-07T02:08:06;108.17;;;16.30;;
3700;SDS011;1866;48.374;10.766;2022-12-07T02:10:34;107.00;;;16.27;;
3700;SDS011;1866;48.374;10.766;2022-12-07T02:13:01;109.37;;;16.50;;
3700;SDS011;1866;48.374;10.766;2022-12-07T02:15:34;108.27;;;16.10;;
3700;SDS011;1866;48.374;10.766;2022-12-07T02:18:13;109.10;;;16.30;;
3700;SDS011;1866;48.374;10.766;2022-12-07T02:20:50;109.67;;;16.67;;
3700;SDS011;1866;48.374;10.766;2022-12-07T02:23:34;108.87;;;16.23;;
3700;SDS011;1866;48.374;10.766;2022-12-07T02:26:24;109.90;;;16.93;;
3700;SDS011;1866;48.374;10.766;2022-12-07T02:29:26;110.45;;;16.52;;
3700;SDS011;1866;48.374;10.766;2022-12-07T02:31:58;106.40;;;16.10;;
3700;SDS011;1866;48.374;10.766;2022-12-07T02:34:32;109.17;;;17.00;;
3700;SDS011;1866;48.374;10.766;2022-12-07T02:37:08;108.53;;;17.00;;
3700;SDS011;1866;48.374;10.766;2022-12-07T02:39:44;108.57;;;17.27;;
3700;SDS011;1866;48.374;10.766;2022-12-07T02:42:17;108.40;;;17.00;;
3700;SDS011;1866;48.374;10.766;2022-12-07T02:44:49;108.10;;;16.87;;
3700;SDS011;1866;48.374;10.766;2022-12-07T02:47:17;108.30;;;17.07;;
3700;SDS011;1866;48.374;10.766;2022-12-07T02:49:47;108.23;;;16.47;;
3700;SDS011;1866;48.374;10.766;2022-12-07T02:52:15;107.47;;;16.53;;
3700;SDS011;1866;48.374;10.766;2022-12-07T02:54:42;108.90;;;17.07;;
3700;SDS011;1866;48.374;10.766;2022-12-07T02:57:16;107.23;;;16.70;;
3700;SDS011;1866;48.374;10.766;2022-12-07T03:00:03;109.57;;;18.33;;
3700;SDS011;1866;48.374;10.766;2022-12-07T03:02:35;108.63;;;16.93;;
3700;SDS011;1866;48.374;10.766;2022-12-07T03:05:15;109.77;;;17.07;;
3700;SDS011;1866;48.374;10.766;2022-12-07T03:07:51;107.63;;;16.47;;
3700;SDS011;1866;48.374;10.766;2022-12-07T03:10:27;109.00;;;17.77;;
3700;SDS011;1866;48.374;10.766;2022-12-07T03:13:02;109.30;;;17.37;;
3700;SDS011;1866;48.374;10.766;2022-12-07T03:15:35;109.60;;;17.10;;
3700;SDS011;1866;48.374;10.766;2022-12-07T03:18:08;108.77;;;16.40;;
3700;SDS011;1866;48.374;10.766;2022-12-07T03:20:38;106.97;;;16.10;;
3700;SDS011;1866;48.374;10.766;2022-12-07T03:23:07;109.57;;;18.10;;
3700;SDS011;1866;48.374;10.766;2022-12-07T03:25:37;107.63;;;16.40;;
3700;SDS011;1866;48.374;10.766;2022-12-07T03:28:07;108.60;;;16.60;;
3700;SDS011;1866;48.374;10.766;2022-12-07T03:30:39;108.60;;;17.20;;
3700;SDS011;1866;48.374;10.766;2022-12-07T03:33:11;109.63;;;18.00;;
3700;SDS011;1866;48.374;10.766;2022-12-07T03:35:44;110.20;;;17.70;;
3700;SDS011;1866;48.374;10.766;2022-12-07T03:38:15;110.07;;;17.73;;
3700;SDS011;1866;48.374;10.766;2022-12-07T03:40:47;109.47;;;17.97;;
3700;SDS011;1866;48.374;10.766;2022-12-07T03:43:17;112.30;;;18.20;;
3700;SDS011;1866;48.374;10.766;2022-12-07T03:45:47;109.33;;;17.37;;
3700;SDS011;1866;48.374;10.766;2022-12-07T03:48:20;110.47;;;17.90;;
3700;SDS011;1866;48.374;10.766;2022-12-07T03:50:53;110.70;;;18.30;;
3700;SDS011;1866;48.374;10.766;2022-12-07T03:53:29;110.20;;;18.80;;
3700;SDS011;1866;48.374;10.766;2022-12-07T03:56:00;109.47;;;17.50;;
3700;SDS011;1866;48.374;10.766;2022-12-07T03:58:28;109.77;;;17.33;;
3700;SDS011;1866;48.374;10.766;2022-12-07T04:00:58;110.60;;;18.00;;
3700;SDS011;1866;48.374;10.766;2022-12-07T04:03:25;109.67;;;17.60;;
3700;SDS011;1866;48.374;10.766;2022-12-07T04:05:51;109.77;;;17.47;;
3700;SDS011;1866;48.374;10.766;2022-12-07T04:08:19;110.90;;;18.10;;
3700;SDS011;1866;48.374;10.766;2022-12-07T04:10:45;108.97;;;17.80;;
3700;SDS011;1866;48.374;10.766;2022-12-07T04:13:12;110.37;;;18.50;;
3700;SDS011;1866;48.374;10.766;2022-12-07T04:15:39;111.77;;;19.00;;
3700;SDS011;1866;48.374;10.766;2022-12-07T04:18:07;110.33;;;18.30;;
3700;SDS011;1866;48.374;10.766;2022-12-07T04:20:35;111.67;;;18.50;;
3700;SDS011;1866;48.374;10.766;2022-12-07T04:23:02;113.80;;;18.37;;
3700;SDS011;1866;48.374;10.766;2022-12-07T04:25:30;108.97;;;17.27;;
3700;SDS011;1866;48.374;10.766;2022-12-07T04:27:57;111.97;;;18.80;;
3700;SDS011;1866;48.374;10.766;2022-12-07T04:30:24;112.40;;;18.90;;
3700;SDS011;1866;48.374;10.766;2022-12-07T04:32:51;110.37;;;17.70;;
3700;SDS011;1866;48.374;10.766;2022-12-07T04:35:19;110.03;;;17.40;;
3700;SDS011;1866;48.374;10.766;2022-12-07T04:37:46;113.20;;;18.03;;
3700;SDS011;1866;48.374;10.766;2022-12-07T04:40:13;110.07;;;17.57;;
3700;SDS011;1866;48.374;10.766;2022-12-07T04:42:40;111.30;;;18.37;;
3700;SDS011;1866;48.374;10.766;2022-12-07T04:45:08;109.00;;;17.33;;
3700;SDS011;1866;48.374;10.766;2022-12-07T04:47:35;110.03;;;18.17;;
3700;SDS011;1866;48.374;10.766;2022-12-07T04:50:02;109.27;;;17.40;;
3700;SDS011;1866;48.374;10.766;2022-12-07T04:52:31;111.27;;;17.30;;
3700;SDS011;1866;48.374;10.766;2022-12-07T04:54:58;109.47;;;17.77;;
3700;SDS011;1866;48.374;10.766;2022-12-07T04:57:25;110.50;;;17.00;;
3700;SDS011;1866;48.374;10.766;2022-12-07T04:59:52;110.77;;;17.77;;
3700;SDS011;1866;48.374;10.766;2022-12-07T05:02:19;111.17;;;18.07;;
3700;SDS011;1866;48.374;10.766;2022-12-07T05:04:46;111.20;;;18.65;;
3700;SDS011;1866;48.374;10.766;2022-12-07T05:07:12;109.30;;;17.80;;
3700;SDS011;1866;48.374;10.766;2022-12-07T05:09:41;109.57;;;18.10;;
3700;SDS011;1866;48.374;10.766;2022-12-07T05:12:07;111.57;;;18.60;;
3700;SDS011;1866;48.374;10.766;2022-12-07T05:14:34;111.03;;;18.10;;
3700;SDS011;1866;48.374;10.766;2022-12-07T05:17:01;113.87;;;18.37;;
3700;SDS011;1866;48.374;10.766;2022-12-07T05:19:29;108.20;;;17.13;;
3700;SDS011;1866;48.374;10.766;2022-12-07T05:21:56;111.20;;;18.10;;
3700;SDS011;1866;48.374;10.766;2022-12-07T05:24:23;109.60;;;17.70;;
3700;SDS011;1866;48.374;10.766;2022-12-07T05:26:51;113.57;;;18.67;;
3700;SDS011;1866;48.374;10.766;2022-12-07T05:29:18;110.17;;;17.63;;
3700;SDS011;1866;48.374;10.766;2022-12-07T05:31:45;110.97;;;18.23;;
3700;SDS011;1866;48.374;10.766;2022-12-07T05:34:11;112.05;;;18.42;;
3700;SDS011;1866;48.374;10.766;2022-12-07T05:36:39;110.47;;;18.37;;
3700;SDS011;1866;48.374;10.766;2022-12-07T05:39:06;110.60;;;17.83;;
3700;SDS011;1866;48.374;10.766;2022-12-07T05:41:33;109.13;;;17.42;;
3700;SDS011;1866;48.374;10.766;2022-12-07T05:44:25;110.87;;;18.80;;
3700;SDS011;1866;48.374;10.766;2022-12-07T05:47:01;111.38;;;17.48;;
3700;SDS011;1866;48.374;10.766;2022-12-07T05:49:28;110.45;;;17.65;;
3700;SDS011;1866;48.374;10.766;2022-12-07T05:51:54;109.93;;;18.00;;
3700;SDS011;1866;48.374;10.766;2022-12-07T05:54:21;110.38;;;17.92;;
3700;SDS011;1866;48.374;10.766;2022-12-07T05:56:48;110.07;;;17.48;;
3700;SDS011;1866;48.374;10.766;2022-12-07T05:59:15;111.80;;;18.20;;
3700;SDS011;1866;48.374;10.766;2022-12-07T06:01:49;110.25;;;17.50;;
3700;SDS011;1866;48.374;10.766;2022-12-07T06:04:16;112.80;;;17.55;;
3700;SDS011;1866;48.374;10.766;2022-12-07T06:06:43;113.80;;;18.60;;
3700;SDS011;1866;48.374;10.766;2022-12-07T06:09:10;112.97;;;18.33;;
3700;SDS011;1866;48.374;10.766;2022-12-07T06:11:38;112.63;;;19.17;;
3700;SDS011;1866;48.374;10.766;2022-12-07T06:14:23;111.07;;;18.48;;
3700;SDS011;1866;48.374;10.766;2022-12-07T06:16:51;110.63;;;17.00;;
3700;SDS011;1866;48.374;10.766;2022-12-07T06:19:18;110.53;;;18.10;;
3700;SDS011;1866;48.374;10.766;2022-12-07T06:21:45;111.90;;;18.02;;
3700;SDS011;1866;48.374;10.766;2022-12-07T06:24:12;113.65;;;18.10;;
3700;SDS011;1866;48.374;10.766;2022-12-07T06:26:40;112.10;;;18.02;;
3700;SDS011;1866;48.374;10.766;2022-12-07T06:29:07;114.63;;;19.08;;
3700;SDS011;1866;48.374;10.766;2022-12-07T06:31:34;109.30;;;17.88;;
3700;SDS011;1866;48.374;10.766;2022-12-07T06:34:04;110.82;;;18.92;;
3700;SDS011;1866;48.374;10.766;2022-12-07T06:36:32;110.28;;;19.00;;
3700;SDS011;1866;48.374;10.766;2022-12-07T06:38:59;116.20;;;20.45;;
3700;SDS011;1866;48.374;10.766;2022-12-07T06:41:26;111.95;;;19.35;;
3700;SDS011;1866;48.374;10.766;2022-12-07T06:43:53;114.18;;;19.90;;
3700;SDS011;1866;48.374;10.766;2022-12-07T06:46:20;111.18;;;19.17;;
3700;SDS011;1866;48.374;10.766;2022-12-07T06:48:47;112.90;;;19.38;;
3700;SDS011;1866;48.374;10.766;2022-12-07T06:51:16;111.10;;;19.35;;
3700;SDS011;1866;48.374;10.766;2022-12-07T06:53:43;113.57;;;19.50;;
3700;SDS011;1866;48.374;10.766;2022-12-07T06:56:10;113.40;;;19.38;;
3700;SDS011;1866;48.374;10.766;2022-12-07T06:58:38;112.97;;;19.75;;
3700;SDS011;1866;48.374;10.766;2022-12-07T07:01:08;113.13;;;19.50;;
3700;SDS011;1866;48.374;10.766;2022-12-07T07:03:36;113.68;;;19.42;;
3700;SDS011;1866;48.374;10.766;2022-12-07T07:06:03;113.05;;;19.63;;
3700;SDS011;1866;48.374;10.766;2022-12-07T07:08:32;113.95;;;19.95;;
3700;SDS011;1866;48.374;10.766;2022-12-07T07:10:59;123.20;;;20.05;;
3700;SDS011;1866;48.374;10.766;2022-12-07T07:13:26;119.88;;;20.23;;
3700;SDS011;1866;48.374;10.766;2022-12-07T07:15:53;115.55;;;19.75;;
3700;SDS011;1866;48.374;10.766;2022-12-07T07:18:21;113.32;;;19.70;;
3700;SDS011;1866;48.374;10.766;2022-12-07T07:20:48;113.97;;;19.38;;
3700;SDS011;1866;48.374;10.766;2022-12-07T07:23:16;113.28;;;19.63;;
3700;SDS011;1866;48.374;10.766;2022-12-07T07:25:45;118.65;;;20.88;;
3700;SDS011;1866;48.374;10.766;2022-12-07T07:28:12;114.75;;;20.38;;
3700;SDS011;1866;48.374;10.766;2022-12-07T07:30:39;122.45;;;23.05;;
3700;SDS011;1866;48.374;10.766;2022-12-07T07:33:06;121.25;;;23.15;;
3700;SDS011;1866;48.374;10.766;2022-12-07T07:35:33;116.28;;;21.02;;
3700;SDS011;1866;48.374;10.766;2022-12-07T07:38:00;119.70;;;21.33;;
3700;SDS011;1866;48.374;10.766;2022-12-07T07:40:28;115.63;;;20.75;;
3700;SDS011;1866;48.374;10.766;2022-12-07T07:42:56;114.00;;;20.95;;
3700;SDS011;1866;48.374;10.766;2022-12-07T07:45:25;121.65;;;23.77;;
3700;SDS011;1866;48.374;10.766;2022-12-07T07:47:53;123.10;;;24.40;;
3700;SDS011;1866;48.374;10.766;2022-12-07T07:50:20;115.75;;;21.83;;
3700;SDS011;1866;48.374;10.766;2022-12-07T07:52:47;117.05;;;22.15;;
3700;SDS011;1866;48.374;10.766;2022-12-07T07:55:14;118.70;;;22.13;;
3700;SDS011;1866;48.374;10.766;2022-12-07T07:57:41;115.80;;;21.40;;
3700;SDS011;1866;48.374;10.766;2022-12-07T08:00:11;117.30;;;22.63;;
3700;SDS011;1866;48.374;10.766;2022-12-07T08:02:39;120.45;;;23.05;;
3700;SDS011;1866;48.374;10.766;2022-12-07T08:05:07;116.65;;;21.83;;
3700;SDS011;1866;48.374;10.766;2022-12-07T08:07:34;116.97;;;22.15;;
3700;SDS011;1866;48.374;10.766;2022-12-07T08:10:01;117.25;;;21.90;;
3700;SDS011;1866;48.374;10.766;2022-12-07T08:12:29;120.70;;;21.58;;
3700;SDS011;1866;48.374;10.766;2022-12-07T08:14:56;117.78;;;22.00;;
3700;SDS011;1866;48.374;10.766;2022-12-07T08:17:24;117.22;;;21.90;;
3700;SDS011;1866;48.374;10.766;2022-12-07T08:19:51;118.07;;;22.15;;
3700;SDS011;1866;48.374;10.766;2022-12-07T08:22:18;122.60;;;24.27;;
3700;SDS011;1866;48.374;10.766;2022-12-07T08:24:44;126.07;;;26.40;;
3700;SDS011;1866;48.374;10.766;2022-12-07T08:27:11;119.20;;;23.45;;
3700;SDS011;1866;48.374;10.766;2022-12-07T08:29:38;121.78;;;22.52;;
3700;SDS011;1866;48.374;10.766;2022-12-07T08:32:05;117.80;;;21.67;;
3700;SDS011;1866;48.374;10.766;2022-12-07T08:34:33;119.10;;;22.63;;
3700;SDS011;1866;48.374;10.766;2022-12-07T08:37:00;115.68;;;21.60;;
3700;SDS011;1866;48.374;10.766;2022-12-07T08:39:27;116.68;;;22.05;;
3700;SDS011;1866;48.374;10.766;2022-12-07T08:41:54;114.70;;;21.47;;
3700;SDS011;1866;48.374;10.766;2022-12-07T08:44:22;116.10;;;21.33;;
3700;SDS011;1866;48.374;10.766;2022-12-07T08:46:49;117.22;;;21.70;;
3700;SDS011;1866;48.374;10.766;2022-12-07T08:49:20;117.85;;;21.40;;
3700;SDS011;1866;48.374;10.766;2022-12-07T08:51:51;115.55;;;20.20;;
3700;SDS011;1866;48.374;10.766;2022-12-07T08:54:19;115.65;;;19.35;;
3700;SDS011;1866;48.374;10.766;2022-12-07T08:56:46;116.25;;;19.42;;
3700;SDS011;1866;48.374;10.766;2022-12-07T08:59:16;115.30;;;18.70;;
3700;SDS011;1866;48.374;10.766;2022-12-07T09:01:45;114.18;;;18.90;;
3700;SDS011;1866;48.374;10.766;2022-12-07T09:04:12;111.57;;;17.77;;
3700;SDS011;1866;48.374;10.766;2022-12-07T09:09:10;113.67;;;17.63;;
3700;SDS011;1866;48.374;10.766;2022-12-07T09:11:40;112.53;;;17.52;;
3700;SDS011;1866;48.374;10.766;2022-12-07T09:14:07;114.22;;;17.63;;
3700;SDS011;1866;48.374;10.766;2022-12-07T09:16:33;114.30;;;16.75;;
3700;SDS011;1866;48.374;10.766;2022-12-07T09:19:00;113.07;;;16.70;;
3700;SDS011;1866;48.374;10.766;2022-12-07T09:21:27;113.47;;;15.95;;
3700;SDS011;1866;48.374;10.766;2022-12-07T09:23:54;111.83;;;15.10;;
3700;SDS011;1866;48.374;10.766;2022-12-07T09:26:23;112.23;;;16.10;;
3700;SDS011;1866;48.374;10.766;2022-12-07T09:28:49;112.77;;;15.40;;
3700;SDS011;1866;48.374;10.766;2022-12-07T09:31:16;110.27;;;14.37;;
3700;SDS011;1866;48.374;10.766;2022-12-07T09:33:43;110.47;;;14.27;;
3700;SDS011;1866;48.374;10.766;2022-12-07T09:36:10;111.30;;;14.27;;
3700;SDS011;1866;48.374;10.766;2022-12-07T09:38:37;110.70;;;13.90;;
3700;SDS011;1866;48.374;10.766;2022-12-07T09:41:04;111.00;;;13.80;;
3700;SDS011;1866;48.374;10.766;2022-12-07T09:43:34;110.97;;;13.47;;
3700;SDS011;1866;48.374;10.766;2022-12-07T09:46:02;109.67;;;11.87;;
3700;SDS011;1866;48.374;10.766;2022-12-07T09:48:31;109.40;;;13.30;;
3700;SDS011;1866;48.374;10.766;2022-12-07T09:51:01;108.67;;;12.97;;
3700;SDS011;1866;48.374;10.766;2022-12-07T09:53:30;108.10;;;11.30;;
3700;SDS011;1866;48.374;10.766;2022-12-07T09:56:00;109.60;;;12.30;;
3700;SDS011;1866;48.374;10.766;2022-12-07T09:58:28;123.57;;;17.20;;
3700;SDS011;1866;48.374;10.766;2022-12-07T10:00:58;109.57;;;11.73;;
3700;SDS011;1866;48.374;10.766;2022-12-07T10:03:31;107.67;;;10.70;;
3700;SDS011;1866;48.374;10.766;2022-12-07T10:05:58;108.67;;;10.70;;
3700;SDS011;1866;48.374;10.766;2022-12-07T10:08:25;106.67;;;11.20;;
3700;SDS011;1866;48.374;10.766;2022-12-07T10:10:53;105.60;;;10.17;;
3700;SDS011;1866;48.374;10.766;2022-12-07T10:13:22;105.20;;;10.23;;
3700;SDS011;1866;48.374;10.766;2022-12-07T10:16:01;106.30;;;11.00;;
3700;SDS011;1866;48.374;10.766;2022-12-07T10:18:29;106.33;;;10.10;;
3700;SDS011;1866;48.374;10.766;2022-12-07T10:21:02;106.40;;;10.30;;
3700;SDS011;1866;48.374;10.766;2022-12-07T10:23:32;108.30;;;9.50;;
3700;SDS011;1866;48.374;10.766;2022-12-07T10:26:09;104.27;;;8.97;;
3700;SDS011;1866;48.374;10.766;2022-12-07T10:28:47;104.03;;;9.50;;
3700;SDS011;1866;48.374;10.766;2022-12-07T10:31:17;107.40;;;10.60;;
3700;SDS011;1866;48.374;10.766;2022-12-07T10:33:50;105.37;;;9.93;;
3700;SDS011;1866;48.374;10.766;2022-12-07T10:36:20;103.80;;;8.97;;
3700;SDS011;1866;48.374;10.766;2022-12-07T10:38:51;105.07;;;8.93;;
3700;SDS011;1866;48.374;10.766;2022-12-07T10:41:19;103.67;;;9.00;;
3700;SDS011;1866;48.374;10.766;2022-12-07T10:43:47;105.70;;;8.80;;
3700;SDS011;1866;48.374;10.766;2022-12-07T10:49:28;104.80;;;9.00;;
3700;SDS011;1866;48.374;10.766;2022-12-07T10:52:22;104.20;;;9.10;;
3700;SDS011;1866;48.374;10.766;2022-12-07T10:55:03;108.00;;;8.73;;
3700;SDS011;1866;48.374;10.766;2022-12-07T10:57:42;104.50;;;9.30;;
3700;SDS011;1866;48.374;10.766;2022-12-07T11:00:17;103.67;;;9.27;;
3700;SDS011;1866;48.374;10.766;2022-12-07T11:02:53;105.13;;;8.87;;
3700;SDS011;1866;48.374;10.766;2022-12-07T11:05:34;104.63;;;9.27;;
3700;SDS011;1866;48.374;10.766;2022-12-07T11:08:09;106.73;;;8.60;;
3700;SDS011;1866;48.374;10.766;2022-12-07T11:10:43;104.77;;;8.90;;
3700;SDS011;1866;48.374;10.766;2022-12-07T11:13:21;106.77;;;8.97;;
3700;SDS011;1866;48.374;10.766;2022-12-07T11:15:55;104.63;;;8.60;;
3700;SDS011;1866;48.374;10.766;2022-12-07T11:18:34;102.70;;;7.73;;
3700;SDS011;1866;48.374;10.766;2022-12-07T11:21:13;100.50;;;7.50;;
3700;SDS011;1866;48.374;10.766;2022-12-07T11:23:49;104.97;;;8.67;;
3700;SDS011;1866;48.374;10.766;2022-12-07T11:26:29;102.10;;;8.03;;
3700;SDS011;1866;48.374;10.766;2022-12-07T11:29:18;102.90;;;8.73;;
3700;SDS011;1866;48.374;10.766;2022-12-07T11:31:58;102.47;;;7.87;;
3700;SDS011;1866;48.374;10.766;2022-12-07T11:34:36;107.90;;;8.10;;
3700;SDS011;1866;48.374;10.766;2022-12-07T11:37:09;104.47;;;7.93;;
3700;SDS011;1866;48.374;10.766;2022-12-07T11:39:41;103.40;;;8.50;;
3700;SDS011;1866;48.374;10.766;2022-12-07T11:42:14;102.57;;;7.83;;
3700;SDS011;1866;48.374;10.766;2022-12-07T11:44:47;111.90;;;9.23;;
3700;SDS011;1866;48.374;10.766;2022-12-07T11:47:20;107.60;;;8.67;;
3700;SDS011;1866;48.374;10.766;2022-12-07T11:49:54;104.37;;;8.63;;
3700;SDS011;1866;48.374;10.766;2022-12-07T11:52:25;109.07;;;10.13;;
3700;SDS011;1866;48.374;10.766;2022-12-07T11:54:58;103.83;;;8.23;;
3700;SDS011;1866;48.374;10.766;2022-12-07T11:57:30;102.87;;;7.50;;
3700;SDS011;1866;48.374;10.766;2022-12-07T12:00:04;103.47;;;8.10;;
3700;SDS011;1866;48.374;10.766;2022-12-07T12:02:39;104.60;;;8.90;;
3700;SDS011;1866;48.374;10.766;2022-12-07T12:05:17;104.90;;;7.90;;
3700;SDS011;1866;48.374;10.766;2022-12-07T12:07:46;102.40;;;7.70;;
3700;SDS011;1866;48.374;10.766;2022-12-07T12:10:20;102.80;;;8.23;;
3700;SDS011;1866;48.374;10.766;2022-12-07T12:13:08;103.90;;;8.27;;
3700;SDS011;1866;48.374;10.766;2022-12-07T12:15:58;103.87;;;7.97;;
3700;SDS011;1866;48.374;10.766;2022-12-07T12:18:45;105.00;;;7.83;;
3700;SDS011;1866;48.374;10.766;2022-12-07T12:21:25;104.20;;;8.00;;
3700;SDS011;1866;48.374;10.766;2022-12-07T12:23:55;102.37;;;7.40;;
3700;SDS011;1866;48.374;10.766;2022-12-07T12:26:29;103.43;;;7.93;;
3700;SDS011;1866;48.374;10.766;2022-12-07T12:29:00;106.37;;;8.60;;
3700;SDS011;1866;48.374;10.766;2022-12-07T12:31:34;105.57;;;8.40;;
3700;SDS011;1866;48.374;10.766;2022-12-07T12:34:10;107.57;;;8.93;;
3700;SDS011;1866;48.374;10.766;2022-12-07T12:37:07;104.70;;;8.27;;
3700;SDS011;1866;48.374;10.766;2022-12-07T12:42:56;112.13;;;9.90;;
3700;SDS011;1866;48.374;10.766;2022-12-07T12:45:25;111.87;;;10.50;;
3700;SDS011;1866;48.374;10.766;2022-12-07T12:47:54;113.57;;;12.40;;
3700;SDS011;1866;48.374;10.766;2022-12-07T12:50:27;126.27;;;12.40;;
3700;SDS011;1866;48.374;10.766;2022-12-07T12:53:03;112.67;;;10.20;;
3700;SDS011;1866;48.374;10.766;2022-12-07T12:55:53;123.53;;;12.70;;
3700;SDS011;1866;48.374;10.766;2022-12-07T12:58:32;129.23;;;15.70;;
3700;SDS011;1866;48.374;10.766;2022-12-07T13:04:16;105.07;;;8.30;;
3700;SDS011;1866;48.374;10.766;2022-12-07T13:06:59;103.27;;;7.93;;
3700;SDS011;1866;48.374;10.766;2022-12-07T13:09:26;106.50;;;8.80;;
3700;SDS011;1866;48.374;10.766;2022-12-07T13:11:57;103.27;;;7.70;;
3700;SDS011;1866;48.374;10.766;2022-12-07T13:14:41;106.77;;;9.17;;
3700;SDS011;1866;48.374;10.766;2022-12-07T13:23:18;113.90;;;11.73;;
3700;SDS011;1866;48.374;10.766;2022-12-07T13:26:00;106.33;;;8.30;;
3700;SDS011;1866;48.374;10.766;2022-12-07T13:28:36;103.90;;;7.87;;
3700;SDS011;1866;48.374;10.766;2022-12-07T13:31:13;102.47;;;8.00;;
3700;SDS011;1866;48.374;10.766;2022-12-07T13:33:58;103.83;;;8.60;;
3700;SDS011;1866;48.374;10.766;2022-12-07T13:36:27;107.70;;;11.30;;
3700;SDS011;1866;48.374;10.766;2022-12-07T13:38:58;110.87;;;11.20;;
3700;SDS011;1866;48.374;10.766;2022-12-07T13:41:26;102.80;;;7.70;;
3700;SDS011;1866;48.374;10.766;2022-12-07T13:43:59;101.53;;;7.70;;
3700;SDS011;1866;48.374;10.766;2022-12-07T13:46:35;102.07;;;8.10;;
3700;SDS011;1866;48.374;10.766;2022-12-07T13:49:18;112.37;;;10.00;;
3700;SDS011;1866;48.374;10.766;2022-12-07T13:51:47;106.07;;;9.33;;
3700;SDS011;1866;48.374;10.766;2022-12-07T13:54:16;106.70;;;8.90;;
3700;SDS011;1866;48.374;10.766;2022-12-07T13:56:47;106.93;;;9.90;;
3700;SDS011;1866;48.374;10.766;2022-12-07T13:59:16;107.27;;;10.23;;
3700;SDS011;1866;48.374;10.766;2022-12-07T14:01:45;103.57;;;8.60;;
3700;SDS011;1866;48.374;10.766;2022-12-07T14:04:30;105.70;;;9.33;;
3700;SDS011;1866;48.374;10.766;2022-12-07T14:06:59;104.63;;;8.70;;
3700;SDS011;1866;48.374;10.766;2022-12-07T14:09:29;103.30;;;7.83;;
3700;SDS011;1866;48.374;10.766;2022-12-07T14:11:56;104.00;;;8.00;;
3700;SDS011;1866;48.374;10.766;2022-12-07T14:14:25;102.67;;;7.60;;
3700;SDS011;1866;48.374;10.766;2022-12-07T14:16:58;103.17;;;7.47;;
3700;SDS011;1866;48.374;10.766;2022-12-07T14:22:28;107.60;;;9.03;;
3700;SDS011;1866;48.374;10.766;2022-12-07T14:24:59;105.93;;;7.87;;
3700;SDS011;1866;48.374;10.766;2022-12-07T14:27:47;104.60;;;8.97;;
3700;SDS011;1866;48.374;10.766;2022-12-07T14:30:21;104.37;;;7.90;;
3700;SDS011;1866;48.374;10.766;2022-12-07T14:32:50;105.80;;;9.13;;
3700;SDS011;1866;48.374;10.766;2022-12-07T14:35:19;109.83;;;10.03;;
3700;SDS011;1866;48.374;10.766;2022-12-07T14:37:47;105.47;;;8.83;;
3700;SDS011;1866;48.374;10.766;2022-12-07T14:40:17;103.70;;;8.23;;
3700;SDS011;1866;48.374;10.766;2022-12-07T14:42:46;101.20;;;7.60;;
3700;SDS011;1866;48.374;10.766;2022-12-07T14:45:16;104.07;;;8.30;;
3700;SDS011;1866;48.374;10.766;2022-12-07T14:47:44;105.17;;;8.80;;
3700;SDS011;1866;48.374;10.766;2022-12-07T14:50:12;102.67;;;8.03;;
3700;SDS011;1866;48.374;10.766;2022-12-07T14:52:41;102.50;;;8.13;;
3700;SDS011;1866;48.374;10.766;2022-12-07T14:55:13;108.90;;;9.73;;
3700;SDS011;1866;48.374;10.766;2022-12-07T14:57:46;102.37;;;8.27;;
3700;SDS011;1866;48.374;10.766;2022-12-07T15:00:14;104.87;;;9.03;;
3700;SDS011;1866;48.374;10.766;2022-12-07T15:02:42;105.00;;;8.53;;
3700;SDS011;1866;48.374;10.766;2022-12-07T15:05:09;104.60;;;8.43;;
3700;SDS011;1866;48.374;10.766;2022-12-07T15:07:36;105.47;;;9.23;;
3700;SDS011;1866;48.374;10.766;2022-12-07T15:10:03;110.97;;;10.93;;